createdAt,value
2017-07-17T00:00:11.977Z,1.80
2017-07-17T00:02:39.538Z,2.03
2017-07-17T00:05:07.104Z,1.90
2017-07-17T00:07:34.710Z,1.87
2017-07-17T00:10:02.293Z,2.00
2017-07-17T00:12:29.875Z,1.70
2017-07-17T00:14:57.505Z,1.33
2017-07-17T00:17:25.090Z,1.77
2017-07-17T00:19:52.655Z,1.83
2017-07-17T00:22:20.273Z,1.67
2017-07-17T00:24:47.861Z,1.73
2017-07-17T00:27:15.451Z,1.77
2017-07-17T00:29:43.066Z,2.37
2017-07-17T00:32:10.656Z,1.50
2017-07-17T00:34:38.246Z,1.70
2017-07-17T00:37:05.858Z,1.60
2017-07-17T00:39:33.986Z,2.43
2017-07-17T00:42:01.573Z,1.70
2017-07-17T00:44:29.167Z,1.77
2017-07-17T00:46:56.735Z,1.67
2017-07-17T00:49:24.853Z,1.67
2017-07-17T00:51:52.476Z,2.03
2017-07-17T00:54:20.082Z,2.00
2017-07-17T00:56:47.667Z,1.70
2017-07-17T00:59:15.282Z,1.40
2017-07-17T01:01:42.870Z,1.70
2017-07-17T01:04:10.458Z,1.63
2017-07-17T01:06:38.082Z,1.43
2017-07-17T01:09:05.654Z,1.83
2017-07-17T01:11:33.253Z,1.50
2017-07-17T01:14:00.857Z,1.70
2017-07-17T01:16:29.214Z,1.40
2017-07-17T01:18:56.783Z,1.77
2017-07-17T01:21:25.177Z,1.90
2017-07-17T01:23:52.738Z,1.70
2017-07-17T01:26:21.075Z,1.73
2017-07-17T01:28:48.702Z,1.67
2017-07-17T01:31:17.034Z,1.67
2017-07-17T01:33:44.623Z,1.80
2017-07-17T01:36:13.014Z,1.40
2017-07-17T01:38:40.630Z,1.67
2017-07-17T01:41:08.927Z,1.80
2017-07-17T01:43:37.562Z,1.57
2017-07-17T01:46:05.873Z,1.70
2017-07-17T01:48:34.361Z,1.53
2017-07-17T01:51:02.875Z,1.43
2017-07-17T01:53:31.362Z,1.70
2017-07-17T01:55:59.019Z,1.67
2017-07-17T01:58:27.330Z,1.40
2017-07-17T02:00:54.922Z,1.60
2017-07-17T02:03:23.181Z,1.80
2017-07-17T02:05:51.438Z,1.63
2017-07-17T02:08:19.095Z,1.80
2017-07-17T02:10:46.857Z,2.00
2017-07-17T02:13:15.067Z,1.37
2017-07-17T02:15:42.650Z,1.90
2017-07-17T02:18:10.975Z,1.80
2017-07-17T02:20:38.586Z,1.50
2017-07-17T02:23:06.933Z,1.90
2017-07-17T02:25:34.525Z,1.60
2017-07-17T02:28:02.894Z,1.70
2017-07-17T02:30:30.463Z,1.90
2017-07-17T02:32:58.778Z,1.90
2017-07-17T02:35:26.379Z,2.10
2017-07-17T02:37:53.939Z,1.90
2017-07-17T02:40:21.514Z,1.37
2017-07-17T02:42:49.107Z,1.53
2017-07-17T02:45:16.694Z,1.53
2017-07-17T02:47:44.282Z,1.70
2017-07-17T02:50:11.900Z,1.43
2017-07-17T02:52:39.490Z,1.73
2017-07-17T02:55:07.056Z,1.50
2017-07-17T02:57:34.690Z,1.90
2017-07-17T03:00:02.278Z,1.67
2017-07-17T03:02:29.855Z,2.00
2017-07-17T03:04:57.466Z,1.60
2017-07-17T03:07:25.049Z,1.40
2017-07-17T03:09:52.657Z,2.00
2017-07-17T03:12:20.286Z,1.93
2017-07-17T03:14:47.874Z,1.53
2017-07-17T03:17:15.466Z,1.73
2017-07-17T03:19:43.067Z,1.60
2017-07-17T03:22:10.647Z,1.70
2017-07-17T03:24:38.246Z,1.80
2017-07-17T03:27:05.867Z,1.60
2017-07-17T03:29:33.449Z,1.80
2017-07-17T03:32:01.034Z,1.80
2017-07-17T03:34:28.631Z,1.67
2017-07-17T03:36:56.218Z,2.20
2017-07-17T03:39:24.234Z,1.60
2017-07-17T03:41:51.827Z,1.47
2017-07-17T03:44:19.411Z,1.63
2017-07-17T03:46:46.978Z,1.73
2017-07-17T03:49:14.592Z,1.63
2017-07-17T03:51:42.185Z,1.50
2017-07-17T03:54:09.970Z,1.80
2017-07-17T03:56:37.581Z,2.07
2017-07-17T03:59:05.147Z,1.63
2017-07-17T04:01:32.729Z,1.57
2017-07-17T04:04:00.550Z,1.70
2017-07-17T04:06:28.118Z,1.67
2017-07-17T04:08:55.746Z,1.67
2017-07-17T04:11:24.251Z,1.70
2017-07-17T04:13:51.816Z,1.77
2017-07-17T04:16:19.413Z,1.73
2017-07-17T04:18:47.003Z,1.97
2017-07-17T04:21:15.078Z,1.90
2017-07-17T04:23:42.825Z,1.80
2017-07-17T04:26:11.042Z,1.53
2017-07-17T04:28:38.630Z,1.57
2017-07-17T04:31:06.974Z,1.60
2017-07-17T04:33:34.627Z,1.60
2017-07-17T04:36:02.909Z,1.50
2017-07-17T04:38:30.479Z,1.67
2017-07-17T04:40:58.854Z,1.77
2017-07-17T04:43:26.415Z,2.10
2017-07-17T04:45:53.997Z,2.20
2017-07-17T04:48:21.587Z,1.57
2017-07-17T04:50:49.174Z,1.80
2017-07-17T04:53:16.738Z,1.90
2017-07-17T04:55:44.331Z,1.60
2017-07-17T04:58:11.921Z,1.70
2017-07-17T05:00:39.488Z,1.57
2017-07-17T05:03:07.705Z,1.90
2017-07-17T05:05:35.286Z,1.70
2017-07-17T05:08:02.859Z,2.00
2017-07-17T05:10:30.489Z,2.00
2017-07-17T05:12:58.707Z,1.70
2017-07-17T05:15:26.286Z,2.00
2017-07-17T05:17:54.233Z,2.33
2017-07-17T05:20:22.121Z,1.80
2017-07-17T05:22:49.685Z,2.03
2017-07-17T05:25:17.289Z,1.97
2017-07-17T05:27:44.856Z,1.70
2017-07-17T05:30:12.439Z,2.30
2017-07-17T05:32:40.063Z,1.70
2017-07-17T05:35:07.681Z,1.80
2017-07-17T05:37:35.258Z,1.73
2017-07-17T05:40:02.890Z,1.57
2017-07-17T05:42:30.471Z,2.47
2017-07-17T05:44:58.382Z,5.97
2017-07-17T05:47:25.998Z,2.47
2017-07-17T05:49:53.583Z,2.13
2017-07-17T05:52:21.174Z,1.97
2017-07-17T05:54:48.802Z,2.10
2017-07-17T05:57:16.394Z,2.90
2017-07-17T05:59:43.957Z,2.33
2017-07-17T06:02:11.874Z,1.90
2017-07-17T06:04:39.458Z,1.93
2017-07-17T06:07:08.030Z,32.93
2017-07-17T06:09:35.646Z,9.60
2017-07-17T06:12:03.961Z,5.17
2017-07-17T06:14:31.554Z,5.43
2017-07-17T06:17:01.965Z,3.13
2017-07-17T06:19:29.534Z,2.10
2017-07-17T06:21:58.919Z,2.30
2017-07-17T06:24:26.530Z,2.50
2017-07-17T06:26:54.818Z,1.93
2017-07-17T06:29:23.827Z,1.80
2017-07-17T06:31:51.834Z,1.90
2017-07-17T06:34:19.405Z,1.80
2017-07-17T06:36:46.986Z,1.90
2017-07-17T06:39:14.758Z,1.60
2017-07-17T06:41:42.633Z,2.17
2017-07-17T06:44:11.138Z,2.10
2017-07-17T06:46:39.623Z,2.23
2017-07-17T06:49:08.115Z,2.03
2017-07-17T06:51:35.681Z,1.73
2017-07-17T06:54:03.326Z,1.97
2017-07-17T06:56:30.918Z,2.17
2017-07-17T06:58:58.511Z,1.80
2017-07-17T07:01:26.126Z,1.80
2017-07-17T07:03:53.759Z,2.00
2017-07-17T07:06:21.327Z,1.80
2017-07-17T07:08:48.923Z,1.90
2017-07-17T07:11:16.514Z,1.70
2017-07-17T07:13:44.101Z,2.20
2017-07-17T07:16:11.702Z,1.80
2017-07-17T07:18:39.282Z,1.90
2017-07-17T07:21:06.959Z,2.03
2017-07-17T07:23:34.570Z,2.50
2017-07-17T07:26:02.189Z,2.30
2017-07-17T07:28:29.754Z,2.03
2017-07-17T07:30:57.343Z,1.80
2017-07-17T07:33:24.956Z,2.17
2017-07-17T07:35:52.582Z,1.77
2017-07-17T07:38:20.238Z,2.07
2017-07-17T07:40:48.606Z,2.10
2017-07-17T07:43:16.196Z,2.60
2017-07-17T07:45:43.805Z,8.00
2017-07-17T07:48:11.365Z,2.73
2017-07-17T07:50:38.929Z,4.13
2017-07-17T07:53:06.541Z,3.50
2017-07-17T07:55:34.426Z,4.50
2017-07-17T07:58:02.007Z,15.20
2017-07-17T08:00:29.626Z,4.70
2017-07-17T08:02:57.214Z,4.27
2017-07-17T08:05:24.860Z,10.70
2017-07-17T08:07:52.451Z,8.27
2017-07-17T08:10:20.015Z,5.37
2017-07-17T08:12:47.616Z,7.03
2017-07-17T08:15:15.772Z,8.50
2017-07-17T08:17:43.367Z,8.30
2017-07-17T08:20:10.957Z,7.70
2017-07-17T08:22:38.577Z,8.23
2017-07-17T08:25:06.843Z,5.70
2017-07-17T08:27:34.414Z,6.00
2017-07-17T08:30:02.033Z,5.20
2017-07-17T08:32:29.615Z,6.30
2017-07-17T08:34:57.940Z,7.00
2017-07-17T08:37:25.550Z,7.83
2017-07-17T08:39:53.142Z,8.10
2017-07-17T08:42:20.737Z,7.27
2017-07-17T08:44:48.530Z,5.80
2017-07-17T08:47:16.103Z,6.67
2017-07-17T08:49:43.702Z,6.70
2017-07-17T08:52:11.449Z,7.10
2017-07-17T08:54:39.034Z,7.37
2017-07-17T08:57:06.624Z,6.67
2017-07-17T08:59:34.223Z,7.80
2017-07-17T09:02:01.822Z,8.00
2017-07-17T09:04:29.470Z,7.80
2017-07-17T09:06:57.099Z,7.10
2017-07-17T09:09:24.689Z,6.93
2017-07-17T09:11:52.255Z,7.57
2017-07-17T09:14:19.866Z,7.57
2017-07-17T09:16:47.435Z,7.53
2017-07-17T09:19:14.998Z,7.10
2017-07-17T09:21:43.315Z,7.63
2017-07-17T09:24:10.889Z,7.10
2017-07-17T09:26:38.451Z,7.30
2017-07-17T09:29:06.066Z,6.90
2017-07-17T09:31:33.657Z,7.27
2017-07-17T09:34:01.233Z,7.80
2017-07-17T09:36:28.894Z,7.00
2017-07-17T09:38:56.464Z,6.50
2017-07-17T09:41:24.056Z,6.63
2017-07-17T09:43:51.659Z,7.30
2017-07-17T09:46:19.858Z,6.60
2017-07-17T09:48:47.453Z,6.60
2017-07-17T09:51:15.089Z,6.80
2017-07-17T09:53:42.667Z,6.57
2017-07-17T09:56:10.789Z,6.17
2017-07-17T09:58:38.386Z,6.60
2017-07-17T10:01:05.950Z,6.20
2017-07-17T10:03:33.514Z,6.33
2017-07-17T10:06:01.686Z,6.47
2017-07-17T10:08:29.279Z,7.40
2017-07-17T10:10:56.902Z,7.03
2017-07-17T10:13:24.523Z,6.93
2017-07-17T10:15:52.114Z,7.10
2017-07-17T10:18:19.687Z,6.87
2017-07-17T10:20:47.958Z,6.30
2017-07-17T10:23:15.525Z,6.83
2017-07-17T10:25:43.090Z,6.20
2017-07-17T10:28:10.702Z,6.20
2017-07-17T10:30:38.273Z,6.60
2017-07-17T10:33:05.995Z,6.50
2017-07-17T10:35:33.586Z,6.47
2017-07-17T10:38:01.151Z,5.50
2017-07-17T10:40:28.738Z,7.57
2017-07-17T10:42:56.695Z,6.57
2017-07-17T10:45:24.282Z,5.90
2017-07-17T10:47:51.847Z,6.47
2017-07-17T10:50:19.457Z,6.00
2017-07-17T10:52:47.027Z,6.57
2017-07-17T10:55:14.804Z,5.80
2017-07-17T10:57:42.609Z,5.73
2017-07-17T11:00:10.217Z,6.27
2017-07-17T11:02:37.782Z,6.20
2017-07-17T11:05:05.394Z,5.90
2017-07-17T11:07:32.982Z,5.83
2017-07-17T11:10:00.570Z,5.97
2017-07-17T11:12:28.726Z,6.10
2017-07-17T11:14:56.295Z,5.97
2017-07-17T11:17:23.862Z,6.37
2017-07-17T11:19:51.705Z,5.73
2017-07-17T11:22:19.330Z,6.00
2017-07-17T11:24:46.943Z,6.50
2017-07-17T11:27:14.559Z,5.70
2017-07-17T11:29:42.162Z,6.20
2017-07-17T11:32:09.735Z,6.40
2017-07-17T11:34:37.339Z,6.20
2017-07-17T11:37:05.452Z,5.63
2017-07-17T11:39:33.244Z,6.20
2017-07-17T11:42:01.063Z,6.17
2017-07-17T11:44:28.657Z,5.33
2017-07-17T11:57:07.983Z,5.73
2017-07-17T11:59:35.558Z,5.43
2017-07-17T12:02:03.175Z,5.20
2017-07-17T12:04:30.791Z,5.80
2017-07-17T12:06:58.350Z,5.40
2017-07-17T12:09:26.108Z,5.47
2017-07-17T12:11:53.720Z,5.60
2017-07-17T12:14:21.945Z,5.20
2017-07-17T12:16:50.483Z,5.97
2017-07-17T12:19:18.083Z,5.33
2017-07-17T12:21:45.680Z,3.67
2017-07-17T12:24:13.284Z,4.53
2017-07-17T12:26:40.884Z,4.10
2017-07-17T12:29:08.495Z,2.90
2017-07-17T12:31:36.130Z,3.80
2017-07-17T12:34:03.738Z,3.20
2017-07-17T12:36:31.341Z,2.83
2017-07-17T12:38:58.939Z,2.97
2017-07-17T12:41:26.502Z,2.87
2017-07-17T12:43:54.128Z,2.80
2017-07-17T12:46:21.759Z,2.93
2017-07-17T12:48:49.339Z,4.40
2017-07-17T12:51:16.898Z,3.00
2017-07-17T12:53:44.542Z,2.93
2017-07-17T12:56:12.137Z,2.87
2017-07-17T12:58:39.710Z,3.10
2017-07-17T13:01:07.336Z,2.70
2017-07-17T13:03:35.992Z,2.93
2017-07-17T13:06:04.137Z,3.20
2017-07-17T13:08:31.731Z,2.70
2017-07-17T13:10:59.811Z,2.83
2017-07-17T13:13:27.454Z,3.80
2017-07-17T13:15:55.073Z,3.10
2017-07-17T13:18:22.671Z,2.90
2017-07-17T13:20:50.266Z,3.30
2017-07-17T13:23:22.659Z,3.10
2017-07-17T13:25:50.303Z,3.20
2017-07-17T13:28:17.973Z,2.90
2017-07-17T13:30:45.608Z,3.17
2017-07-17T13:33:13.450Z,3.50
2017-07-17T13:35:41.011Z,2.80
2017-07-17T13:38:09.452Z,2.90
2017-07-17T13:40:37.894Z,3.70
2017-07-17T13:43:06.376Z,4.67
2017-07-17T13:45:34.891Z,5.53
2017-07-17T13:48:02.463Z,7.50
2017-07-17T13:50:30.775Z,10.63
2017-07-17T13:55:25.690Z,8.83
2017-07-17T13:57:53.279Z,5.57
2017-07-17T14:00:21.667Z,4.63
2017-07-17T14:02:49.853Z,4.50
2017-07-17T14:05:22.142Z,4.33
2017-07-17T14:07:49.758Z,4.00
2017-07-17T14:10:17.620Z,3.60
2017-07-17T14:12:48.162Z,3.20
2017-07-17T14:15:19.358Z,3.33
2017-07-17T14:17:46.946Z,3.50
2017-07-17T14:20:14.607Z,2.73
2017-07-17T14:22:42.201Z,3.03
2017-07-17T14:25:10.527Z,3.23
2017-07-17T14:27:38.127Z,3.10
2017-07-17T14:30:07.412Z,13.50
2017-07-17T14:32:34.990Z,18.00
2017-07-17T14:35:03.475Z,9.40
2017-07-17T14:37:31.094Z,7.20
2017-07-17T14:39:58.688Z,8.87
2017-07-17T14:42:26.284Z,6.90
2017-07-17T14:44:54.155Z,6.60
2017-07-17T14:47:22.473Z,4.33
2017-07-17T14:49:50.078Z,4.13
2017-07-17T14:52:18.163Z,4.13
2017-07-17T14:54:45.747Z,4.10
2017-07-17T14:57:13.336Z,2.73
2017-07-17T14:59:40.962Z,3.90
2017-07-17T15:02:08.547Z,3.40
2017-07-17T15:04:36.141Z,3.20
2017-07-17T15:07:03.779Z,3.47
2017-07-17T15:09:31.383Z,3.77
2017-07-17T15:11:58.980Z,3.40
2017-07-17T15:14:26.603Z,3.27
2017-07-17T15:16:54.198Z,3.20
2017-07-17T15:19:21.767Z,3.00
2017-07-17T15:21:49.397Z,3.17
2017-07-17T15:24:17.600Z,3.30
2017-07-17T15:26:45.955Z,2.87
2017-07-17T15:29:13.597Z,3.40
2017-07-17T15:31:41.191Z,3.07
2017-07-17T15:34:08.763Z,3.10
2017-07-17T15:36:36.359Z,3.00
2017-07-17T15:39:04.027Z,3.60
2017-07-17T15:41:31.670Z,3.33
2017-07-17T15:43:59.290Z,3.10
2017-07-17T15:46:26.890Z,2.90
2017-07-17T15:48:54.483Z,3.77
2017-07-17T15:51:22.102Z,2.90
2017-07-17T15:53:49.683Z,2.80
2017-07-17T15:56:17.736Z,2.60
2017-07-17T15:58:45.359Z,3.23
2017-07-17T16:01:12.991Z,2.70
2017-07-17T16:03:40.567Z,2.50
2017-07-17T16:06:08.999Z,2.27
2017-07-17T16:08:36.608Z,2.80
2017-07-17T16:11:04.522Z,2.50
2017-07-17T16:13:32.154Z,3.03
2017-07-17T16:16:00.466Z,2.67
2017-07-17T16:18:28.093Z,2.67
2017-07-17T16:20:56.697Z,2.97
2017-07-17T16:23:24.869Z,2.77
2017-07-17T16:25:52.471Z,2.60
2017-07-17T16:28:23.603Z,2.50
2017-07-17T16:30:52.901Z,2.87
2017-07-17T16:33:29.763Z,2.30
2017-07-17T16:35:58.822Z,2.67
2017-07-17T16:38:26.396Z,2.50
2017-07-17T16:40:55.348Z,2.40
2017-07-17T16:43:22.958Z,2.80
2017-07-17T16:45:51.427Z,2.50
2017-07-17T16:48:19.915Z,1.83
2017-07-17T16:50:47.925Z,2.20
2017-07-17T16:53:15.834Z,2.30
2017-07-17T16:55:43.426Z,2.27
2017-07-17T16:58:11.781Z,2.30
2017-07-17T17:00:40.765Z,3.10
2017-07-17T17:03:09.132Z,1.73
2017-07-17T17:05:37.737Z,2.17
2017-07-17T17:08:05.987Z,2.40
2017-07-17T17:10:33.875Z,1.80
2017-07-17T17:13:05.306Z,2.33
2017-07-17T17:15:37.949Z,2.20
2017-07-17T17:18:06.043Z,1.80
2017-07-17T17:20:33.618Z,2.67
2017-07-17T17:23:01.786Z,2.27
2017-07-17T17:25:29.362Z,2.10
2017-07-17T17:27:58.134Z,2.20
2017-07-17T17:30:25.748Z,3.10
2017-07-17T17:32:54.172Z,2.10
2017-07-17T17:35:22.082Z,2.30
2017-07-17T17:37:49.706Z,2.13
2017-07-17T17:40:17.466Z,2.17
2017-07-17T17:42:45.530Z,1.90
2017-07-17T17:45:16.442Z,2.53
2017-07-17T17:47:46.069Z,2.17
2017-07-17T17:50:14.650Z,2.70
2017-07-17T17:52:43.031Z,2.60
2017-07-17T17:55:11.701Z,2.60
2017-07-17T17:57:40.307Z,2.53
2017-07-17T18:00:08.811Z,2.73
2017-07-17T18:02:36.399Z,2.60
2017-07-17T18:05:03.982Z,2.37
2017-07-17T18:07:31.738Z,2.37
2017-07-17T18:09:59.342Z,2.33
2017-07-17T18:12:26.929Z,2.30
2017-07-17T18:14:55.114Z,2.00
2017-07-17T18:17:23.367Z,2.13
2017-07-17T18:19:50.943Z,2.00
2017-07-17T18:22:18.550Z,2.60
2017-07-17T18:24:46.155Z,1.97
2017-07-17T18:27:13.798Z,2.13
2017-07-17T18:29:41.462Z,2.23
2017-07-17T18:32:09.319Z,2.20
2017-07-17T18:34:36.906Z,2.10
2017-07-17T18:37:04.721Z,2.20
2017-07-17T18:39:32.303Z,1.90
2017-07-17T18:41:59.883Z,2.20
2017-07-17T18:44:27.517Z,2.53
2017-07-17T18:46:55.150Z,1.90
2017-07-17T18:49:23.295Z,2.30
2017-07-17T18:51:51.509Z,2.63
2017-07-17T18:54:19.156Z,2.53
2017-07-17T18:56:48.392Z,2.60
2017-07-17T18:59:16.718Z,2.30
2017-07-17T19:01:45.434Z,2.27
2017-07-17T19:04:13.051Z,2.80
2017-07-17T19:06:40.662Z,2.33
2017-07-17T19:09:09.346Z,2.53
2017-07-17T19:11:37.835Z,2.80
2017-07-17T19:14:05.984Z,2.50
2017-07-17T19:16:34.635Z,2.93
2017-07-17T19:19:03.078Z,3.00
2017-07-17T19:21:31.943Z,2.77
2017-07-17T19:24:00.585Z,2.90
2017-07-17T19:26:28.225Z,2.83
2017-07-17T19:28:57.204Z,2.90
2017-07-17T19:31:24.806Z,2.97
2017-07-17T19:33:53.145Z,2.33
2017-07-17T19:36:21.093Z,2.77
2017-07-17T19:38:49.089Z,2.90
2017-07-17T19:41:17.558Z,2.90
2017-07-17T19:43:45.691Z,3.30
2017-07-17T19:46:13.881Z,2.97
2017-07-17T19:48:42.203Z,2.70
2017-07-17T19:51:09.916Z,3.00
2017-07-17T19:53:37.522Z,2.77
2017-07-17T19:56:05.799Z,3.37
2017-07-17T19:58:33.438Z,2.70
2017-07-17T20:01:01.040Z,3.10
2017-07-17T20:03:29.324Z,3.23
2017-07-17T20:05:57.270Z,3.13
2017-07-17T20:08:25.609Z,3.03
2017-07-17T20:10:53.474Z,3.33
2017-07-17T20:13:21.099Z,3.67
2017-07-17T20:15:49.306Z,3.20
2017-07-17T20:18:17.497Z,3.47
2017-07-17T20:20:46.189Z,3.10
2017-07-17T20:23:14.457Z,4.50
2017-07-17T20:25:42.778Z,3.33
2017-07-17T20:28:10.755Z,3.57
2017-07-17T20:30:38.993Z,3.60
2017-07-17T20:33:06.776Z,3.37
2017-07-17T20:35:34.383Z,3.13
2017-07-17T20:38:01.956Z,2.97
2017-07-17T20:40:31.350Z,2.80
2017-07-17T20:42:58.954Z,3.00
2017-07-17T20:45:27.392Z,2.80
2017-07-17T20:47:55.531Z,2.50
2017-07-17T20:50:23.151Z,2.80
2017-07-17T20:52:50.744Z,2.80
2017-07-17T20:55:18.508Z,2.70
2017-07-17T20:57:46.126Z,2.43
2017-07-17T21:00:14.704Z,2.85
2017-07-17T21:02:42.702Z,4.00
2017-07-17T21:05:10.661Z,3.37
2017-07-17T21:07:39.221Z,3.00
2017-07-17T21:10:06.833Z,3.30
2017-07-17T21:12:44.762Z,3.50
2017-07-17T21:15:12.362Z,3.43
2017-07-17T21:17:40.717Z,2.70
2017-07-17T21:20:08.520Z,2.70
2017-07-17T21:22:36.214Z,3.43
2017-07-17T21:25:06.520Z,3.00
2017-07-17T21:27:34.293Z,3.10
2017-07-17T21:30:01.892Z,3.10
2017-07-17T21:32:32.624Z,3.20
2017-07-17T21:35:04.582Z,3.37
2017-07-17T21:37:32.163Z,3.10
2017-07-17T21:40:03.606Z,2.90
2017-07-17T21:42:33.500Z,2.80
2017-07-17T21:45:01.118Z,3.20
2017-07-17T21:47:29.200Z,3.30
2017-07-17T21:49:57.446Z,2.90
2017-07-17T21:52:25.751Z,2.80
2017-07-17T21:54:53.659Z,2.87
2017-07-17T21:57:22.022Z,2.73
2017-07-17T21:59:49.602Z,3.27
2017-07-17T22:02:17.175Z,2.53
2017-07-17T22:04:44.774Z,2.77
2017-07-17T22:07:12.359Z,2.53
2017-07-17T22:09:40.384Z,2.70
2017-07-17T22:12:08.278Z,2.43
2017-07-17T22:14:38.552Z,2.80
2017-07-17T22:17:06.143Z,2.87
2017-07-17T22:19:34.891Z,2.40
2017-07-17T22:22:02.641Z,2.40
2017-07-17T22:24:30.270Z,2.93
2017-07-17T22:26:57.902Z,3.00
2017-07-17T22:29:25.478Z,2.47
2017-07-17T22:31:53.097Z,2.20
2017-07-17T22:34:20.723Z,2.50
2017-07-17T22:36:48.294Z,2.70
2017-07-17T22:39:15.903Z,2.43
2017-07-17T22:41:43.952Z,2.30
2017-07-17T22:44:11.895Z,2.20
2017-07-17T22:46:40.812Z,2.90
2017-07-17T22:49:08.439Z,2.73
2017-07-17T22:51:36.588Z,2.50
2017-07-17T22:54:04.700Z,2.70
2017-07-17T22:56:32.500Z,2.50
2017-07-17T22:59:00.094Z,2.27
2017-07-17T23:01:28.651Z,1.90
2017-07-17T23:03:57.051Z,2.63
2017-07-17T23:06:24.664Z,2.90
2017-07-17T23:08:52.266Z,2.10
2017-07-17T23:11:20.855Z,2.43
2017-07-17T23:13:48.980Z,2.30
2017-07-17T23:16:16.580Z,2.10
2017-07-17T23:18:44.187Z,2.70
2017-07-17T23:21:11.766Z,2.53
2017-07-17T23:23:39.833Z,2.33
2017-07-17T23:26:08.233Z,2.30
2017-07-17T23:28:35.868Z,2.27
2017-07-17T23:31:03.458Z,2.27
2017-07-17T23:33:31.954Z,2.07
2017-07-17T23:35:59.552Z,2.43
2017-07-17T23:38:27.147Z,2.33
2017-07-17T23:40:55.524Z,2.37
2017-07-17T23:43:23.114Z,2.27
2017-07-17T23:45:50.683Z,2.13
2017-07-17T23:48:18.966Z,2.37
2017-07-17T23:50:46.546Z,2.10
2017-07-17T23:53:14.106Z,2.20
2017-07-17T23:55:41.691Z,2.20
2017-07-17T23:58:09.247Z,2.43
